createdAt,value
2023-03-04T07:18:47.746Z,0.80
2023-03-04T07:21:17.417Z,1.00
2023-03-04T07:23:45.291Z,1.10
2023-03-04T07:26:13.127Z,1.20
2023-03-04T07:28:42.766Z,1.40
2023-03-04T07:31:32.128Z,1.50
2023-03-04T07:34:06.758Z,1.40
2023-03-04T07:36:37.005Z,1.40
2023-03-04T07:39:05.855Z,0.90
2023-03-04T07:41:36.305Z,0.90
2023-03-04T07:44:07.040Z,1.30
2023-03-04T07:46:34.858Z,1.10
2023-03-04T07:49:02.209Z,1.00
2023-03-04T07:51:29.745Z,1.30
2023-03-04T07:54:01.048Z,1.30
2023-03-04T07:56:33.957Z,1.40
2023-03-04T07:59:02.215Z,1.70
2023-03-04T08:01:37.913Z,1.70
2023-03-04T08:04:07.983Z,1.70
2023-03-04T08:06:35.984Z,1.60
2023-03-04T08:09:07.708Z,1.60
2023-03-04T08:11:38.434Z,1.30
2023-03-04T08:14:06.321Z,1.40
2023-03-04T08:16:33.768Z,1.50
2023-03-04T08:19:04.180Z,1.80
2023-03-04T08:21:32.607Z,1.90
2023-03-04T08:24:07.863Z,2.10
2023-03-04T08:26:46.757Z,1.70
2023-03-04T08:29:24.767Z,1.70
2023-03-04T08:31:54.396Z,1.90
2023-03-04T08:34:27.407Z,2.10
2023-03-04T08:36:55.034Z,1.80
2023-03-04T08:39:22.476Z,2.30
2023-03-04T08:41:50.308Z,2.00
2023-03-04T08:44:17.676Z,2.10
2023-03-04T08:46:45.011Z,2.20
2023-03-04T08:49:14.445Z,2.50
2023-03-04T08:51:41.829Z,2.50
2023-03-04T08:54:09.149Z,2.60
2023-03-04T08:56:36.450Z,2.80
2023-03-04T08:59:04.109Z,2.70
2023-03-04T09:01:31.517Z,2.90
2023-03-04T09:03:58.916Z,2.50
2023-03-04T09:06:26.290Z,3.00
2023-03-04T09:08:53.623Z,2.70
2023-03-04T09:11:21.024Z,3.00
2023-03-04T09:13:48.447Z,2.80
2023-03-04T09:16:16.876Z,3.40
2023-03-04T09:18:44.367Z,3.50
2023-03-04T09:21:12.210Z,3.70
2023-03-04T09:23:40.973Z,3.50
2023-03-04T09:26:26.858Z,3.80
2023-03-04T09:28:59.636Z,3.60
2023-03-04T09:31:30.078Z,4.00
2023-03-04T09:33:59.484Z,4.20
2023-03-04T09:36:26.853Z,4.30
2023-03-04T09:38:54.198Z,4.10
2023-03-04T09:41:37.619Z,4.20
2023-03-04T09:44:43.218Z,3.60
2023-03-04T09:47:17.612Z,4.00
2023-03-04T09:50:01.267Z,4.70
2023-03-04T09:53:21.303Z,4.60
2023-03-04T09:55:53.000Z,4.70
2023-03-04T09:59:00.207Z,4.70
2023-03-04T10:01:42.617Z,4.70
2023-03-04T10:04:50.964Z,4.60
2023-03-04T10:07:33.416Z,4.40
2023-03-04T10:10:10.642Z,4.70
2023-03-04T10:12:42.814Z,5.00
2023-03-04T10:15:46.202Z,5.00
2023-03-04T10:18:48.370Z,5.00
2023-03-04T10:21:36.261Z,5.60
2023-03-04T10:24:18.789Z,5.40
2023-03-04T10:27:01.531Z,6.00
2023-03-04T10:29:32.637Z,5.70
2023-03-04T10:32:00.484Z,6.00
2023-03-04T10:34:28.169Z,6.20
2023-03-04T10:37:07.536Z,6.40
2023-03-04T10:39:46.291Z,6.60
2023-03-04T10:42:16.477Z,6.40
2023-03-04T10:45:01.072Z,6.70
2023-03-04T10:47:33.548Z,6.90
2023-03-04T10:50:05.650Z,7.20
2023-03-04T10:52:49.969Z,7.30
2023-03-04T10:55:28.410Z,7.40
2023-03-04T10:58:13.521Z,6.90
2023-03-04T11:00:41.247Z,7.60
2023-03-04T11:03:31.922Z,7.80
2023-03-04T11:06:13.367Z,7.80
2023-03-04T11:08:42.583Z,8.10
2023-03-04T11:11:42.950Z,8.60
2023-03-04T11:14:34.679Z,8.30
2023-03-04T11:17:45.355Z,8.70
2023-03-04T11:20:48.278Z,8.40
2023-03-04T11:23:39.517Z,8.30
2023-03-04T11:26:19.522Z,8.60
2023-03-04T11:29:31.621Z,9.30
2023-03-04T11:32:21.325Z,8.70
2023-03-04T11:35:25.344Z,9.50
2023-03-04T11:38:37.723Z,8.50
2023-03-04T11:41:19.191Z,9.50
2023-03-04T11:43:47.720Z,9.60
2023-03-04T11:47:22.837Z,9.80
2023-03-04T11:50:29.397Z,10.20
2023-03-04T11:53:34.086Z,10.20
2023-03-04T11:56:35.258Z,10.20
2023-03-04T11:59:54.398Z,10.30
2023-03-04T12:02:46.974Z,10.20
2023-03-04T12:06:06.244Z,10.50
2023-03-04T12:09:21.726Z,10.60
2023-03-04T12:12:33.599Z,10.80
2023-03-04T12:15:51.418Z,11.30
2023-03-04T12:18:55.838Z,10.90
2023-03-04T12:22:23.316Z,11.10
2023-03-04T12:25:53.728Z,11.40
2023-03-04T12:29:43.116Z,10.10
2023-03-04T12:33:02.576Z,11.40
2023-03-04T12:35:58.795Z,11.20
2023-03-04T12:38:53.599Z,11.50
2023-03-04T12:42:23.243Z,11.10
2023-03-04T12:45:43.857Z,10.90
2023-03-04T12:48:50.242Z,11.50
2023-03-04T12:52:18.117Z,11.50
2023-03-04T12:54:58.184Z,11.20
2023-03-04T12:57:31.636Z,11.60
2023-03-04T13:00:13.300Z,11.80
2023-03-04T13:03:09.299Z,11.60
2023-03-04T13:06:13.889Z,11.10
2023-03-04T13:09:24.075Z,12.00
2023-03-04T13:12:24.677Z,12.50
2023-03-04T13:15:10.221Z,12.60
2023-03-04T13:18:01.546Z,12.60
2023-03-04T13:20:41.884Z,12.50
2023-03-04T13:23:14.964Z,12.80
2023-03-04T13:26:32.911Z,12.90
2023-03-04T13:29:18.592Z,12.80
2023-03-04T13:32:12.671Z,13.10
2023-03-04T13:34:57.934Z,12.90
2023-03-04T13:37:37.029Z,13.10
2023-03-04T13:40:23.433Z,13.30
2023-03-04T13:42:51.383Z,12.60
2023-03-04T13:45:37.389Z,13.60
2023-03-04T13:48:33.146Z,13.30
2023-03-04T13:51:00.731Z,14.10
2023-03-04T13:54:08.092Z,13.80
2023-03-04T13:56:40.668Z,13.80
2023-03-04T13:59:07.745Z,13.30
2023-03-04T14:01:43.041Z,13.30
2023-03-04T14:04:56.292Z,13.00
2023-03-04T14:07:36.770Z,13.30
2023-03-04T14:10:12.333Z,13.20
2023-03-04T14:12:58.856Z,13.30
2023-03-04T14:15:32.108Z,13.30
2023-03-04T14:18:04.730Z,12.70
2023-03-04T14:20:39.600Z,12.90
2023-03-04T14:23:42.527Z,13.10
2023-03-04T14:26:18.056Z,12.80
2023-03-04T14:28:52.684Z,12.80
2023-03-04T14:31:25.105Z,12.60
2023-03-04T14:33:59.848Z,12.90
2023-03-04T14:36:29.581Z,13.00
2023-03-04T14:39:03.260Z,13.00
2023-03-04T14:41:39.413Z,12.40
2023-03-04T14:44:40.508Z,12.70
2023-03-04T14:47:45.350Z,12.30
2023-03-04T14:50:20.178Z,12.10
2023-03-04T14:53:26.119Z,12.80
2023-03-04T14:56:10.575Z,12.30
2023-03-04T14:58:53.432Z,11.90
2023-03-04T15:01:32.414Z,12.30
2023-03-04T15:04:05.867Z,12.10
2023-03-04T15:06:39.222Z,11.90
2023-03-04T15:09:25.409Z,12.40
2023-03-04T15:12:08.299Z,11.90
2023-03-04T15:15:24.784Z,11.60
2023-03-04T15:18:22.990Z,12.20
2023-03-04T15:21:20.203Z,12.00
2023-03-04T15:23:47.964Z,12.60
2023-03-04T15:26:15.394Z,12.30
2023-03-04T15:28:43.410Z,12.50
2023-03-04T15:31:24.158Z,12.70
2023-03-04T15:33:52.533Z,12.40
2023-03-04T15:36:23.992Z,12.20
2023-03-04T15:38:53.569Z,12.20
2023-03-04T15:41:28.033Z,12.20
2023-03-04T15:43:55.578Z,12.70
2023-03-04T15:46:23.107Z,12.20
2023-03-04T15:48:50.818Z,12.30
2023-03-04T15:51:23.151Z,12.40
2023-03-04T15:53:57.600Z,13.00
2023-03-04T15:56:31.773Z,12.30
2023-03-04T15:59:16.579Z,12.50
2023-03-04T16:01:44.147Z,12.60
2023-03-04T16:04:17.647Z,12.70
2023-03-04T16:06:50.385Z,12.20
2023-03-04T16:09:21.079Z,11.90
2023-03-04T16:11:48.573Z,11.80
2023-03-04T16:14:17.084Z,11.70
2023-03-04T16:16:46.487Z,11.60
2023-03-04T16:19:13.801Z,11.50
2023-03-04T16:21:41.580Z,11.20
2023-03-04T16:24:19.933Z,11.00
2023-03-04T16:26:48.425Z,11.10
2023-03-04T16:29:16.854Z,10.90
2023-03-04T16:31:44.363Z,11.10
2023-03-04T16:34:11.999Z,11.00
2023-03-04T16:36:39.513Z,10.80
2023-03-04T16:39:22.763Z,11.10
2023-03-04T16:41:51.625Z,10.80
2023-03-04T16:44:19.144Z,10.30
2023-03-04T16:46:46.532Z,10.40
2023-03-04T16:49:13.859Z,10.40
2023-03-04T16:51:50.239Z,10.20
2023-03-04T16:54:31.814Z,10.30
2023-03-04T16:57:00.208Z,10.00
2023-03-04T16:59:29.235Z,9.50
2023-03-04T17:01:57.174Z,9.50
2023-03-04T17:04:24.863Z,9.40
2023-03-04T17:06:52.385Z,9.60
2023-03-04T17:09:19.745Z,9.40
2023-03-04T17:11:47.322Z,9.00
2023-03-04T17:14:14.637Z,9.00
2023-03-04T17:16:42.719Z,9.00
2023-03-04T17:19:10.026Z,8.50
2023-03-04T17:21:37.303Z,8.60
2023-03-04T17:24:04.856Z,8.50
2023-03-04T17:26:32.648Z,8.30
2023-03-04T17:28:59.974Z,7.90
2023-03-04T17:31:27.312Z,8.00
2023-03-04T17:33:54.611Z,8.00
2023-03-04T17:36:22.118Z,7.60
2023-03-04T17:38:51.928Z,7.60
2023-03-04T17:41:19.697Z,7.70
2023-03-04T17:43:51.766Z,7.70
2023-03-04T17:46:25.541Z,7.20
2023-03-04T17:48:57.378Z,7.40
2023-03-04T17:51:38.694Z,7.00
2023-03-04T17:54:08.622Z,7.10
2023-03-04T17:56:39.897Z,7.00
2023-03-04T17:59:13.776Z,6.70
2023-03-04T18:01:41.680Z,6.70
2023-03-04T18:04:09.076Z,7.00
2023-03-04T18:06:36.407Z,6.60
2023-03-04T18:09:05.636Z,6.40
2023-03-04T18:11:38.699Z,6.60
2023-03-04T18:14:06.521Z,6.40
2023-03-04T18:16:34.764Z,6.40
2023-03-04T18:19:02.938Z,6.40
2023-03-04T18:21:30.785Z,6.30
2023-03-04T18:23:58.640Z,6.50
2023-03-04T18:26:27.177Z,6.10
2023-03-04T18:28:56.850Z,6.10
2023-03-04T18:31:31.636Z,6.20
2023-03-04T18:34:02.624Z,5.90
2023-03-04T18:36:30.682Z,6.00
2023-03-04T18:38:59.536Z,5.90
2023-03-04T18:41:27.866Z,5.70
2023-03-04T18:43:55.696Z,5.50
2023-03-04T18:46:46.936Z,5.60
2023-03-04T18:49:15.582Z,5.60
2023-03-04T18:51:42.987Z,5.50
2023-03-04T18:54:10.514Z,5.50
2023-03-04T18:56:58.660Z,5.50
2023-03-04T19:00:02.471Z,5.00
2023-03-04T19:02:52.671Z,5.30
2023-03-04T19:05:30.019Z,5.20
2023-03-04T19:07:57.450Z,5.30
2023-03-04T19:10:25.813Z,5.10
2023-03-04T19:12:53.158Z,5.30
2023-03-04T19:15:20.526Z,5.30
2023-03-04T19:17:47.870Z,5.20
2023-03-04T19:20:16.240Z,4.70
2023-03-04T19:22:44.479Z,4.80
2023-03-04T19:25:12.605Z,4.80
2023-03-04T19:27:40.001Z,4.70
2023-03-04T19:30:10.128Z,4.70
2023-03-04T19:32:37.647Z,4.60
2023-03-04T19:35:05.617Z,4.30
2023-03-04T19:37:33.091Z,3.80
2023-03-04T19:40:00.362Z,3.60
2023-03-04T19:42:27.804Z,3.50
2023-03-04T19:44:55.369Z,3.70
2023-03-04T19:47:22.700Z,3.90
2023-03-04T19:49:49.991Z,3.60
2023-03-04T19:52:17.318Z,3.50
2023-03-04T19:54:44.595Z,3.40
2023-03-04T19:57:11.922Z,3.40
2023-03-04T19:59:39.266Z,3.20
2023-03-04T20:02:06.570Z,3.50
2023-03-04T20:04:34.040Z,3.70
2023-03-04T20:07:01.384Z,3.60
2023-03-04T20:09:28.695Z,3.60
2023-03-04T20:11:59.083Z,3.50
2023-03-04T20:14:33.467Z,3.30
2023-03-04T20:17:06.834Z,3.40
2023-03-04T20:19:35.250Z,3.30
2023-03-04T20:22:05.676Z,3.20
2023-03-04T20:24:33.139Z,3.40
2023-03-04T20:27:00.862Z,3.40
2023-03-04T20:29:28.946Z,3.30
2023-03-04T20:31:56.429Z,3.10
2023-03-04T20:34:25.444Z,3.40
2023-03-04T20:36:52.834Z,3.40
2023-03-04T20:39:29.237Z,3.20
2023-03-04T20:41:58.912Z,3.40
2023-03-04T20:44:27.044Z,3.10
2023-03-04T20:46:54.398Z,3.00
2023-03-04T20:49:28.668Z,2.90
2023-03-04T20:52:09.091Z,3.10
2023-03-04T20:54:39.042Z,3.10
2023-03-04T20:57:08.069Z,3.10
2023-03-04T20:59:38.977Z,2.80
2023-03-04T21:02:14.876Z,3.10
2023-03-04T21:04:43.882Z,2.90
2023-03-04T21:07:12.148Z,3.10
2023-03-04T21:09:39.463Z,2.80
2023-03-04T21:12:07.748Z,3.10
2023-03-04T21:14:35.106Z,3.20
2023-03-04T21:17:05.048Z,3.30
2023-03-04T21:19:43.488Z,3.10
2023-03-04T21:22:19.009Z,3.10
2023-03-04T21:24:47.920Z,3.30
2023-03-04T21:27:16.937Z,3.10
2023-03-04T21:29:44.703Z,2.90
2023-03-04T21:32:25.582Z,3.10
2023-03-04T21:34:55.198Z,3.00
2023-03-04T21:37:25.602Z,3.10
2023-03-04T21:39:54.850Z,3.10
2023-03-04T21:42:22.519Z,2.90
2023-03-04T21:44:51.484Z,3.00
2023-03-04T21:47:22.214Z,3.00
2023-03-04T21:49:50.278Z,3.20
2023-03-04T21:52:22.614Z,3.10
2023-03-04T21:54:50.156Z,2.90
2023-03-04T21:57:19.206Z,2.90
2023-03-04T21:59:46.794Z,3.30
2023-03-04T22:02:23.949Z,3.40
2023-03-04T22:04:51.329Z,3.50
2023-03-04T22:07:18.707Z,3.40
2023-03-04T22:09:47.066Z,3.40
2023-03-04T22:12:15.840Z,3.30
2023-03-04T22:14:43.776Z,3.50
2023-03-04T22:17:11.149Z,3.70
